Aeolos — V7PS2 — position and weather

sailwx.info

Track history (hours):
 
Tides and Currents Weather Stations Pressure Air Temp Water Temp Dewpoint Dewpoint Depression Visibility Wind Speed Wind Dir Waves Ship Positions

Aeolos

Last reported at 2015-May-05 15:33 UTC. Time now 2015-May-06 17:29 UTC.
Position N 35°19' E 017°24'.

Length 172 m; draft 10.2 m.

Type: Cargo ship. MMSI: 538003275.

Date/timePositionNaut miles runAvg speedWind from/ knotsBaromVisibWave heightAir tempDewpointWater temp
2015-May-05 15:33N 35°19' E 017°24'1414.3
2015-May-05 14:33N 35°23' E 017°08'1414.2
2015-May-05 13:33N 35°28' E 016°52'1414.2
2015-May-05 12:33N 35°33' E 016°35'1414.3
2015-May-05 11:32N 35°39' E 016°19'1414.1
2015-May-05 10:33N 35°44' E 016°03'1414.2
2015-May-05 09:33N 35°49' E 015°47'1414.2
2015-May-05 08:33N 35°55' E 015°30'1414.2
2015-May-05 07:33N 36°01' E 015°14'1413.9
2015-May-05 06:33N 36°06' E 014°58'1414.1
2015-May-05 05:33N 36°11' E 014°42'1414.1
2015-May-05 04:33N 36°16' E 014°26'1414.2
2015-May-05 03:34N 36°21' E 014°10'1414.1
2015-May-05 02:34N 36°27' E 013°54'1414.1
2015-May-05 01:34N 36°33' E 013°38'1414.2
2015-May-05 00:33N 36°39' E 013°22'1413.9
2015-May-04 23:33N 36°44' E 013°06'1413.9
2015-May-04 22:33N 36°49' E 012°49'1413.9
2015-May-04 21:33N 36°55' E 012°33'1414.0
2015-May-04 20:33N 37°00' E 012°17'1414.1
2015-May-04 19:33N 37°06' E 012°01'1414.0
2015-May-04 18:34N 37°11' E 011°45'1413.8
2015-May-04 17:33N 37°17' E 011°29'1413.8
2015-May-04 16:32N 37°22' E 011°13'1313.6
2015-May-04 15:33N 37°26' E 010°57'1413.7
2015-May-04 14:33N 37°29' E 010°40'1413.9
2015-May-04 13:33N 37°32' E 010°23'1414.3
2015-May-04 12:33N 37°34' E 010°05'1514.6
2015-May-04 11:32N 37°34' E 009°46'2814.3
2015-May-04 09:33N 37°36' E 009°10'1413.9
2015-May-04 08:31N 37°38' E 008°52'1413.5
2015-May-04 07:30N 37°39' E 008°35'21214.2
2015-May-03 16:33N 37°10' E 004°11'1514.7
2015-May-03 15:33N 37°07' E 003°53'1515.1
2015-May-03 14:33N 37°04' E 003°34'1515.1
2015-May-03 13:33N 37°03' E 003°16'1515.1
2015-May-03 12:33N 37°01' E 002°57'1515.2
2015-May-03 11:33N 36°58' E 002°38'1515.0
2015-May-03 10:33N 36°56' E 002°20'1514.9
2015-May-03 09:33N 36°53' E 002°02'1514.7
2015-May-03 08:33N 36°51' E 001°43'1515.5
2015-May-03 07:33N 36°49' E 001°24'1615.3
2015-May-03 06:30N 36°47' E 001°04'1614.9
2015-May-03 05:27N 36°44' E 000°45'1314.6
2015-May-03 04:33N 36°42' E 000°29'1514.6
2015-May-03 03:34N 36°40' E 000°11'3114.2
2015-May-03 01:24N 36°35' W 000°27'1413.6
2015-May-03 00:24N 36°34' W 000°44'1713.7
2015-May-02 23:08N 36°31' W 001°05'1113.3
2015-May-02 22:19N 36°29' W 001°18'3013.8
2015-May-02 20:07N 36°24' W 001°56'814.3
2015-May-02 19:32N 36°23' W 002°06'1414.0
2015-May-02 18:31N 36°20' W 002°23'1414.1
2015-May-02 17:33N 36°18' W 002°40'1614.1
2015-May-02 16:26N 36°16' W 002°59'11214.3
2015-May-02 08:33N 36°00' W 005°17'12613.8
2015-May-01 23:27N 36°15' W 007°52'1613.8
2015-May-01 22:17N 36°19' W 008°11'1013.7
2015-May-01 21:31N 36°22' W 008°24'1313.7
2015-May-01 20:33N 36°25' W 008°40'1413.6
2015-May-01 19:33N 36°29' W 008°56'1413.6
2015-May-01 18:33N 36°33' W 009°12'1313.2
2015-May-01 17:33N 36°40' W 009°26'1813.5
2015-May-01 16:12N 36°56' W 009°36'1414.3
2015-May-01 15:15N 37°10' W 009°40'1014.2
2015-May-01 14:34N 37°19' W 009°43'1414.2
2015-May-01 13:33N 37°33' W 009°47'1714.5
2015-May-01 12:21N 37°50' W 009°52'1214.3
2015-May-01 11:31N 38°02' W 009°55'1414.2
2015-May-01 10:33N 38°15' W 009°59'1414.4
2015-May-01 09:34N 38°29' W 010°02'1413.9
2015-May-01 08:33N 38°43' W 010°06'1413.9
2015-May-01 07:33N 38°57' W 010°06'1413.9
2015-May-01 06:33N 39°11' W 010°06'1713.9
2015-May-01 05:18N 39°28' W 010°06'  
2015-Apr-28 09:33N 50°35' E 000°14'1313.0
2015-Apr-28 08:34N 50°38' E 000°33'1312.5
2015-Apr-28 07:34N 50°45' E 000°50'1212.0
2015-Apr-28 06:32N 50°53' E 001°05'1211.9
2015-Apr-28 05:33N 51°00' E 001°19'1312.9
2015-Apr-28 04:33N 51°08' E 001°35'1413.5
2015-Apr-28 03:33N 51°18' E 001°50'1413.9
2015-Apr-28 02:34N 51°30' E 002°02'1313.2
2015-Apr-28 01:33N 51°40' E 002°15'4212.4
2015-Apr-27 22:09N 52°12' E 003°00'34912.9
2015-Apr-26 19:09N 57°16' E 007°56'9011.8
2015-Apr-26 11:31N 57°48' E 010°33'1111.2
2015-Apr-26 10:33N 57°46' E 010°53'10 6.6
2015-Apr-26 09:05N 57°40' E 010°38'0 0.0
2015-Apr-26 01:08N 57°40' E 010°38'0 0.3
2015-Apr-26 00:30N 57°40' E 010°38'1010.2
2015-Apr-25 23:33N 57°37' E 010°55'1212.1
2015-Apr-25 22:33N 57°32' E 011°16'1312.6
2015-Apr-25 21:33N 57°22' E 011°30'1313.4
2015-Apr-25 20:33N 57°10' E 011°39'1313.2
2015-Apr-25 19:33N 56°57' E 011°47'1312.8
2015-Apr-25 18:33N 56°45' E 011°54'  
Track history (hours):
 
Tides and Currents Weather Stations Pressure Air Temp Water Temp Dewpoint Dewpoint Depression Visibility Wind Speed Wind Dir Waves Ship Positions

Aeolos

Last reported at 2015-May-05 15:33 UTC. Time now 2015-May-06 17:29 UTC.
Position N 35°19' E 017°24'.

Length 172 m; draft 10.2 m.

Type: Cargo ship. MMSI: 538003275.

Date/timePositionNaut miles runAvg speedWind from/ knotsBaromVisibWave heightAir tempDewpointWater temp
2015-May-05 15:33N 35°19' E 017°24'1414.3
2015-May-05 14:33N 35°23' E 017°08'1414.2
2015-May-05 13:33N 35°28' E 016°52'1414.2
2015-May-05 12:33N 35°33' E 016°35'1414.3
2015-May-05 11:32N 35°39' E 016°19'1414.1
2015-May-05 10:33N 35°44' E 016°03'1414.2
2015-May-05 09:33N 35°49' E 015°47'1414.2
2015-May-05 08:33N 35°55' E 015°30'1414.2
2015-May-05 07:33N 36°01' E 015°14'1413.9
2015-May-05 06:33N 36°06' E 014°58'1414.1
2015-May-05 05:33N 36°11' E 014°42'1414.1
2015-May-05 04:33N 36°16' E 014°26'1414.2
2015-May-05 03:34N 36°21' E 014°10'1414.1
2015-May-05 02:34N 36°27' E 013°54'1414.1
2015-May-05 01:34N 36°33' E 013°38'1414.2
2015-May-05 00:33N 36°39' E 013°22'1413.9
2015-May-04 23:33N 36°44' E 013°06'1413.9
2015-May-04 22:33N 36°49' E 012°49'1413.9
2015-May-04 21:33N 36°55' E 012°33'1414.0
2015-May-04 20:33N 37°00' E 012°17'1414.1
2015-May-04 19:33N 37°06' E 012°01'1414.0
2015-May-04 18:34N 37°11' E 011°45'1413.8
2015-May-04 17:33N 37°17' E 011°29'1413.8
2015-May-04 16:32N 37°22' E 011°13'1313.6
2015-May-04 15:33N 37°26' E 010°57'1413.7
2015-May-04 14:33N 37°29' E 010°40'1413.9
2015-May-04 13:33N 37°32' E 010°23'1414.3
2015-May-04 12:33N 37°34' E 010°05'1514.6
2015-May-04 11:32N 37°34' E 009°46'2814.3
2015-May-04 09:33N 37°36' E 009°10'1413.9
2015-May-04 08:31N 37°38' E 008°52'1413.5
2015-May-04 07:30N 37°39' E 008°35'21214.2
2015-May-03 16:33N 37°10' E 004°11'1514.7
2015-May-03 15:33N 37°07' E 003°53'1515.1
2015-May-03 14:33N 37°04' E 003°34'1515.1
2015-May-03 13:33N 37°03' E 003°16'1515.1
2015-May-03 12:33N 37°01' E 002°57'1515.2
2015-May-03 11:33N 36°58' E 002°38'1515.0
2015-May-03 10:33N 36°56' E 002°20'1514.9
2015-May-03 09:33N 36°53' E 002°02'1514.7
2015-May-03 08:33N 36°51' E 001°43'1515.5
2015-May-03 07:33N 36°49' E 001°24'1615.3
2015-May-03 06:30N 36°47' E 001°04'1614.9
2015-May-03 05:27N 36°44' E 000°45'1314.6
2015-May-03 04:33N 36°42' E 000°29'1514.6
2015-May-03 03:34N 36°40' E 000°11'3114.2
2015-May-03 01:24N 36°35' W 000°27'1413.6
2015-May-03 00:24N 36°34' W 000°44'1713.7
2015-May-02 23:08N 36°31' W 001°05'1113.3
2015-May-02 22:19N 36°29' W 001°18'3013.8
2015-May-02 20:07N 36°24' W 001°56'814.3
2015-May-02 19:32N 36°23' W 002°06'1414.0
2015-May-02 18:31N 36°20' W 002°23'1414.1
2015-May-02 17:33N 36°18' W 002°40'1614.1
2015-May-02 16:26N 36°16' W 002°59'11214.3
2015-May-02 08:33N 36°00' W 005°17'12613.8
2015-May-01 23:27N 36°15' W 007°52'1613.8
2015-May-01 22:17N 36°19' W 008°11'1013.7
2015-May-01 21:31N 36°22' W 008°24'1313.7
2015-May-01 20:33N 36°25' W 008°40'1413.6
2015-May-01 19:33N 36°29' W 008°56'1413.6
2015-May-01 18:33N 36°33' W 009°12'1313.2
2015-May-01 17:33N 36°40' W 009°26'1813.5
2015-May-01 16:12N 36°56' W 009°36'1414.3
2015-May-01 15:15N 37°10' W 009°40'1014.2
2015-May-01 14:34N 37°19' W 009°43'1414.2
2015-May-01 13:33N 37°33' W 009°47'1714.5
2015-May-01 12:21N 37°50' W 009°52'1214.3
2015-May-01 11:31N 38°02' W 009°55'1414.2
2015-May-01 10:33N 38°15' W 009°59'1414.4
2015-May-01 09:34N 38°29' W 010°02'1413.9
2015-May-01 08:33N 38°43' W 010°06'1413.9
2015-May-01 07:33N 38°57' W 010°06'1413.9
2015-May-01 06:33N 39°11' W 010°06'1713.9
2015-May-01 05:18N 39°28' W 010°06'  
2015-Apr-28 09:33N 50°35' E 000°14'1313.0
2015-Apr-28 08:34N 50°38' E 000°33'1312.5
2015-Apr-28 07:34N 50°45' E 000°50'1212.0
2015-Apr-28 06:32N 50°53' E 001°05'1211.9
2015-Apr-28 05:33N 51°00' E 001°19'1312.9
2015-Apr-28 04:33N 51°08' E 001°35'1413.5
2015-Apr-28 03:33N 51°18' E 001°50'1413.9
2015-Apr-28 02:34N 51°30' E 002°02'1313.2
2015-Apr-28 01:33N 51°40' E 002°15'4212.4
2015-Apr-27 22:09N 52°12' E 003°00'34912.9
2015-Apr-26 19:09N 57°16' E 007°56'9011.8
2015-Apr-26 11:31N 57°48' E 010°33'1111.2
2015-Apr-26 10:33N 57°46' E 010°53'10 6.6
2015-Apr-26 09:05N 57°40' E 010°38'0 0.0
2015-Apr-26 01:08N 57°40' E 010°38'0 0.3
2015-Apr-26 00:30N 57°40' E 010°38'1010.2
2015-Apr-25 23:33N 57°37' E 010°55'1212.1
2015-Apr-25 22:33N 57°32' E 011°16'1312.6
2015-Apr-25 21:33N 57°22' E 011°30'1313.4
2015-Apr-25 20:33N 57°10' E 011°39'1313.2
2015-Apr-25 19:33N 56°57' E 011°47'1312.8
2015-Apr-25 18:33N 56°45' E 011°54'  

Dump ship's entire track history